Time;durP1;ratioP1;P1;durP2;ratioP2;P2;SDS_P1;SDS_P2;PMS_P1;PMS_P2;Temp;Humidity;BMP_temperature;BMP_pressure;BME280_temperature;BME280_humidity;BME280_pressure;Samples;Min_cycle;Max_cycle;Signal;HPM_P1;HPM_P2
2023/09/13 00:01:43;;;;;;;12.18;10.85;;;21.30;99.90;;;;;;5046907;28;20201;-79
2023/09/13 00:04:11;;;;;;;13.30;11.73;;;21.30;99.90;;;;;;5030484;28;20236;-79
2023/09/13 00:06:39;;;;;;;12.65;11.25;;;21.30;99.90;;;;;;5029411;28;20214;-79
2023/09/13 00:09:09;;;;;;;15.30;12.32;;;21.30;99.90;;;;;;5025600;28;20683;-79
2023/09/13 00:11:36;;;;;;;14.05;12.60;;;21.10;99.90;;;;;;5045001;28;20198;-79
2023/09/13 00:14:04;;;;;;;13.73;12.43;;;21.00;99.90;;;;;;5034293;28;20229;-79
2023/09/13 00:16:32;;;;;;;13.63;11.80;;;21.00;99.90;;;;;;5033894;28;20214;-79
2023/09/13 00:19:10;;;;;;;15.75;12.95;;;20.90;99.90;;;;;;5049055;28;20207;-79
2023/09/13 00:21:40;;;;;;;14.77;13.27;;;20.90;99.90;;;;;;5035014;28;20210;-79
2023/09/13 00:24:10;;;;;;;14.95;12.55;;;20.90;99.90;;;;;;5032350;28;20750;-79
2023/09/13 00:26:37;;;;;;;15.18;12.15;;;20.80;99.90;;;;;;5029328;28;20198;-79
2023/09/13 00:29:05;;;;;;;16.17;13.13;;;20.90;99.90;;;;;;5052514;28;20198;-79
2023/09/13 00:31:32;;;;;;;13.52;12.13;;;20.70;99.90;;;;;;5044035;28;20194;-79
2023/09/13 00:34:00;;;;;;;15.48;12.85;;;20.70;99.90;;;;;;5040555;28;20213;-78
2023/09/13 00:36:27;;;;;;;15.93;13.55;;;20.70;99.90;;;;;;5047623;28;20559;-79
2023/09/13 00:38:55;;;;;;;17.05;13.90;;;20.60;99.90;;;;;;5034005;28;20198;-78
2023/09/13 00:41:24;;;;;;;16.70;15.00;;;20.60;99.90;;;;;;5030601;28;20206;-78
2023/09/13 00:43:51;;;;;;;16.58;14.77;;;20.60;99.90;;;;;;5045789;28;20226;-79
2023/09/13 00:46:18;;;;;;;16.23;14.27;;;20.50;99.90;;;;;;5029869;28;20209;-78
2023/09/13 00:48:46;;;;;;;20.00;16.45;;;20.60;99.90;;;;;;5047296;28;20210;-78
2023/09/13 00:51:14;;;;;;;18.88;16.25;;;20.70;99.90;;;;;;5032256;28;20198;-79
2023/09/13 00:53:42;;;;;;;20.23;16.88;;;20.60;99.90;;;;;;5049428;28;20579;-79
2023/09/13 00:56:11;;;;;;;20.55;17.52;;;20.50;99.90;;;;;;5036600;28;20202;-79
2023/09/13 00:58:40;;;;;;;20.55;17.92;;;20.50;99.90;;;;;;5021388;28;20195;-79
2023/09/13 01:01:09;;;;;;;25.42;19.80;;;20.40;99.90;;;;;;5015885;28;20199;-79
2023/09/13 01:03:39;;;;;;;24.50;20.15;;;20.30;99.90;;;;;;5035771;28;20223;-79
2023/09/13 01:06:09;;;;;;;22.73;19.90;;;20.30;99.90;;;;;;5028064;28;20209;-78
2023/09/13 01:08:39;;;;;;;23.77;21.33;;;20.40;99.90;;;;;;5052572;28;20951;-78
2023/09/13 01:11:07;;;;;;;28.92;25.02;;;20.50;99.90;;;;;;5033413;28;20191;-78
2023/09/13 01:13:34;;;;;;;32.35;26.88;;;20.40;99.90;;;;;;5035015;28;20217;-78
2023/09/13 01:16:10;;;;;;;35.28;26.98;;;20.30;99.90;;;;;;5028963;28;20198;-79
2023/09/13 01:18:45;;;;;;;32.88;26.23;;;20.30;99.90;;;;;;5033353;28;20198;-79
2023/09/13 01:21:32;;;;;;;39.58;29.52;;;20.30;99.90;;;;;;5031929;28;20202;-78
2023/09/13 01:24:30;;;;;;;39.15;30.20;;;20.30;99.90;;;;;;5035642;28;20218;-79
2023/09/13 01:27:11;;;;;;;38.67;30.48;;;20.30;99.90;;;;;;5033423;28;20213;-78
2023/09/13 01:29:41;;;;;;;34.33;29.02;;;20.30;99.90;;;;;;5034038;28;20194;-79
2023/09/13 01:32:08;;;;;;;36.95;29.55;;;20.40;99.90;;;;;;5031714;28;20666;-79
2023/09/13 01:34:36;;;;;;;34.38;28.33;;;20.50;99.90;;;;;;5051156;28;20784;-79
2023/09/13 01:37:04;;;;;;;34.80;28.40;;;20.70;99.90;;;;;;5027353;28;20211;-79
2023/09/13 01:39:32;;;;;;;37.65;28.67;;;20.70;99.90;;;;;;5035694;28;20220;-79
2023/09/13 01:42:05;;;;;;;33.67;27.98;;;20.80;99.90;;;;;;5065806;28;20203;-79
2023/09/13 01:44:34;;;;;;;34.17;27.88;;;20.90;99.90;;;;;;5035215;28;20726;-79
2023/09/13 01:47:05;;;;;;;34.28;27.40;;;20.90;99.90;;;;;;5032003;28;20202;-79
2023/09/13 01:49:35;;;;;;;35.80;29.55;;;21.00;99.90;;;;;;5051523;28;20193;-79
2023/09/13 01:52:05;;;;;;;34.28;27.70;;;21.00;99.90;;;;;;5032779;28;20222;-79
2023/09/13 01:54:34;;;;;;;35.10;29.73;;;21.00;99.90;;;;;;5035738;28;20225;-78
2023/09/13 01:57:01;;;;;;;33.90;28.33;;;21.00;99.90;;;;;;5033119;28;20291;-79
2023/09/13 01:59:29;;;;;;;36.25;31.92;;;21.00;99.90;;;;;;5034199;28;20199;-79
2023/09/13 02:01:56;;;;;;;38.72;30.95;;;20.90;99.90;;;;;;5035130;28;20205;-79
2023/09/13 02:04:29;;;;;;;37.70;30.17;;;20.90;99.90;;;;;;5053070;28;20219;-79
2023/09/13 02:06:56;;;;;;;35.22;30.98;;;20.80;99.90;;;;;;5043763;28;20195;-79
2023/09/13 02:09:24;;;;;;;35.60;31.48;;;20.90;99.90;;;;;;5025816;28;20207;-79
2023/09/13 02:11:51;;;;;;;38.25;33.33;;;20.90;99.90;;;;;;5038492;28;20213;-79
2023/09/13 02:14:18;;;;;;;41.10;34.83;;;20.80;99.90;;;;;;5031410;28;20210;-79
2023/09/13 02:16:46;;;;;;;35.80;30.58;;;20.80;99.90;;;;;;5031719;28;20206;-79
2023/09/13 02:19:15;;;;;;;35.85;31.38;;;20.70;99.90;;;;;;5050987;28;20202;-79
2023/09/13 02:21:44;;;;;;;36.70;32.63;;;20.70;99.90;;;;;;5054520;28;20205;-79
2023/09/13 02:24:12;;;;;;;32.08;28.75;;;20.50;99.90;;;;;;5029939;28;20222;-79
2023/09/13 02:26:40;;;;;;;29.80;25.98;;;20.60;99.90;;;;;;5055744;28;20211;-79
2023/09/13 02:29:07;;;;;;;28.50;24.92;;;20.60;99.90;;;;;;5042769;28;20206;-79
2023/09/13 02:31:35;;;;;;;27.92;24.02;;;20.60;99.90;;;;;;5037496;28;20194;-79
2023/09/13 02:34:02;;;;;;;29.40;25.33;;;20.70;99.90;;;;;;5041959;28;20218;-79
2023/09/13 02:36:31;;;;;;;28.52;24.63;;;20.70;99.90;;;;;;5037738;28;20568;-79
2023/09/13 02:39:00;;;;;;;29.58;26.48;;;20.60;99.90;;;;;;5048540;28;20194;-79
2023/09/13 02:41:28;;;;;;;29.13;26.02;;;20.50;99.90;;;;;;5031055;28;20206;-79
2023/09/13 02:43:55;;;;;;;29.63;26.55;;;20.60;99.90;;;;;;5051342;28;20230;-79
2023/09/13 02:46:23;;;;;;;28.30;25.20;;;20.50;99.90;;;;;;5053670;28;20190;-79
2023/09/13 02:48:50;;;;;;;30.35;27.13;;;20.70;99.90;;;;;;5044649;28;20194;-79
2023/09/13 02:51:18;;;;;;;31.27;27.85;;;20.70;99.90;;;;;;5051303;28;20660;-79
2023/09/13 02:53:45;;;;;;;31.63;28.05;;;20.50;99.90;;;;;;5034708;28;20237;-79
2023/09/13 02:56:14;;;;;;;33.15;28.60;;;20.50;99.90;;;;;;5045934;28;20205;-79
2023/09/13 02:58:43;;;;;;;33.92;29.95;;;20.60;99.90;;;;;;5049038;28;20232;-79
2023/09/13 03:01:11;;;;;;;36.58;32.25;;;20.70;99.90;;;;;;5022898;28;20557;-79
2023/09/13 03:03:40;;;;;;;35.70;31.55;;;20.60;99.90;;;;;;5033281;28;20219;-79
2023/09/13 03:06:13;;;;;;;34.85;30.25;;;20.60;99.90;;;;;;5036514;28;20205;-79
2023/09/13 03:08:42;;;;;;;35.50;30.13;;;20.80;99.90;;;;;;5034232;28;20602;-79
2023/09/13 03:11:11;;;;;;;40.40;33.60;;;20.90;99.90;;;;;;5040864;28;20201;-79
2023/09/13 03:13:48;;;;;;;36.17;32.00;;;20.90;99.90;;;;;;5031444;28;20225;-79
2023/09/13 03:16:17;;;;;;;37.97;32.42;;;20.80;99.90;;;;;;5030358;28;20190;-79
2023/09/13 03:18:45;;;;;;;33.22;29.13;;;20.70;99.90;;;;;;5047396;28;20194;-79
2023/09/13 03:21:15;;;;;;;35.92;30.38;;;20.70;99.90;;;;;;5058233;23;20277;-80
2023/09/13 03:23:45;;;;;;;34.45;29.02;;;20.60;99.90;;;;;;5029452;28;20643;-80
2023/09/13 03:26:14;;;;;;;32.97;27.92;;;20.50;99.90;;;;;;5034551;28;20194;-80
2023/09/13 03:28:43;;;;;;;40.92;33.13;;;20.60;99.90;;;;;;5032592;28;20194;-80
2023/09/13 03:31:13;;;;;;;43.60;38.88;;;20.60;99.90;;;;;;5032313;28;20203;-81
2023/09/13 03:33:41;;;;;;;33.88;30.17;;;20.50;99.90;;;;;;5037431;28;20210;-81
2023/09/13 03:36:09;;;;;;;37.50;33.42;;;20.70;99.90;;;;;;5034610;28;20190;-81
2023/09/13 03:38:38;;;;;;;33.30;28.60;;;20.90;99.90;;;;;;5030568;28;20191;-81
2023/09/13 03:41:07;;;;;;;33.45;29.83;;;21.20;99.90;;;;;;5027815;28;20195;-82
2023/09/13 03:43:35;;;;;;;32.65;28.10;;;21.10;99.90;;;;;;5042261;28;20190;-81
2023/09/13 03:46:04;;;;;;;34.63;30.27;;;21.20;99.90;;;;;;5029609;28;20215;-82
2023/09/13 03:48:38;;;;;;;30.48;26.17;;;21.20;99.90;;;;;;5026014;28;20679;-82
2023/09/13 03:51:07;;;;;;;31.88;27.63;;;21.40;99.90;;;;;;5032506;28;20190;-82
2023/09/13 03:53:35;;;;;;;25.50;22.45;;;21.40;99.90;;;;;;5037496;28;20201;-82
2023/09/13 03:56:04;;;;;;;29.38;26.23;;;21.70;99.90;;;;;;5032452;28;20191;-82
2023/09/13 03:58:33;;;;;;;32.65;28.30;;;21.50;99.90;;;;;;5028624;28;20199;-81
2023/09/13 04:01:04;;;;;;;31.77;28.33;;;21.40;99.90;;;;;;5023628;28;20665;-81
2023/09/13 04:03:33;;;;;;;33.70;28.25;;;21.20;99.90;;;;;;5029239;28;20202;-81
2023/09/13 04:06:03;;;;;;;33.22;29.63;;;20.90;99.90;;;;;;5029109;28;20207;-81
2023/09/13 04:08:31;;;;;;;34.22;29.05;;;20.90;99.90;;;;;;5029620;28;20190;-81
2023/09/13 04:10:58;;;;;;;34.22;29.02;;;20.90;99.90;;;;;;5045929;28;20195;-81
2023/09/13 04:13:30;;;;;;;34.60;29.25;;;20.90;99.90;;;;;;5019748;28;20217;-79
2023/09/13 04:16:01;;;;;;;31.20;27.88;;;20.90;99.90;;;;;;5025980;28;20198;-82
2023/09/13 04:18:29;;;;;;;31.48;28.00;;;20.80;99.90;;;;;;5032772;28;20195;-82
2023/09/13 04:20:58;;;;;;;32.30;28.58;;;20.80;99.90;;;;;;5032568;28;20218;-82
2023/09/13 04:23:26;;;;;;;31.25;27.83;;;20.60;99.90;;;;;;5023593;28;20542;-82
2023/09/13 04:25:53;;;;;;;31.73;27.63;;;20.60;99.90;;;;;;5025329;28;20210;-82
2023/09/13 04:28:21;;;;;;;37.58;28.25;;;20.60;99.90;;;;;;5016246;28;20199;-82
2023/09/13 04:30:49;;;;;;;31.08;26.77;;;20.50;99.90;;;;;;5033030;28;20198;-82
2023/09/13 04:33:16;;;;;;;30.63;27.33;;;20.40;99.90;;;;;;5025646;28;20218;-82
2023/09/13 04:35:44;;;;;;;32.15;26.88;;;20.40;99.90;;;;;;5034347;28;20664;-82
2023/09/13 04:38:13;;;;;;;29.33;26.23;;;20.40;99.90;;;;;;5019984;28;20213;-80
2023/09/13 04:40:43;;;;;;;27.58;24.65;;;20.30;99.90;;;;;;5032440;28;20210;-81
2023/09/13 04:43:23;;;;;;;30.20;27.00;;;20.50;99.90;;;;;;5030149;28;20215;-81
2023/09/13 04:45:52;;;;;;;27.70;23.73;;;20.60;99.90;;;;;;5027454;28;20245;-81
2023/09/13 04:48:20;;;;;;;30.70;26.10;;;20.70;99.90;;;;;;5033948;28;20195;-81
2023/09/13 04:50:47;;;;;;;26.83;23.90;;;20.50;99.90;;;;;;5024654;28;20202;-81
2023/09/13 04:53:16;;;;;;;26.52;23.55;;;20.50;99.90;;;;;;5030572;28;20214;-81
2023/09/13 04:55:45;;;;;;;25.52;22.90;;;20.40;99.90;;;;;;5024685;28;20198;-81
2023/09/13 04:58:13;;;;;;;23.65;21.10;;;20.40;99.90;;;;;;5018397;28;20202;-81
2023/09/13 05:00:40;;;;;;;24.85;22.20;;;20.50;99.90;;;;;;5025027;28;20198;-81
2023/09/13 05:03:09;;;;;;;26.23;23.30;;;20.50;99.90;;;;;;5022267;28;20585;-81
2023/09/13 05:05:36;;;;;;;26.73;22.92;;;20.60;99.90;;;;;;5021508;28;20215;-81
2023/09/13 05:08:04;;;;;;;28.52;24.42;;;20.40;99.90;;;;;;5020800;28;20191;-81
2023/09/13 05:10:33;;;;;;;31.70;26.27;;;20.30;99.90;;;;;;5021241;28;20206;-81
2023/09/13 05:13:00;;;;;;;32.13;24.80;;;20.40;99.90;;;;;;5021632;28;20218;-81
2023/09/13 05:15:28;;;;;;;28.48;25.35;;;20.50;99.90;;;;;;5041457;28;20191;-81
2023/09/13 05:17:55;;;;;;;28.63;24.73;;;20.60;99.90;;;;;;5040351;28;20202;-81
2023/09/13 05:20:24;;;;;;;26.58;23.17;;;20.60;99.90;;;;;;5035734;28;20221;-81
2023/09/13 05:22:54;;;;;;;27.75;23.27;;;20.50;99.90;;;;;;5028533;28;20239;-81
2023/09/13 05:25:21;;;;;;;26.33;23.30;;;20.50;99.90;;;;;;5033972;28;20229;-81
2023/09/13 05:27:50;;;;;;;23.98;21.30;;;20.50;99.90;;;;;;5024174;28;20210;-82
2023/09/13 05:30:18;;;;;;;25.70;22.52;;;20.50;99.90;;;;;;5028691;28;20217;-82
2023/09/13 05:32:45;;;;;;;26.55;22.63;;;20.50;99.90;;;;;;5028573;28;20230;-82
2023/09/13 05:35:12;;;;;;;25.15;20.98;;;20.50;99.90;;;;;;5040197;28;20191;-82
2023/09/13 05:37:40;;;;;;;25.40;22.00;;;20.50;99.90;;;;;;5031942;28;20206;-82
2023/09/13 05:40:08;;;;;;;29.42;22.75;;;20.40;99.90;;;;;;5042316;28;20203;-81
2023/09/13 05:42:36;;;;;;;24.70;22.00;;;20.30;99.90;;;;;;5023705;28;20218;-81
2023/09/13 05:45:05;;;;;;;26.88;23.33;;;20.20;99.90;;;;;;5037411;28;20211;-82
2023/09/13 05:47:33;;;;;;;30.17;24.88;;;20.10;99.90;;;;;;5023141;28;20199;-81
2023/09/13 05:50:00;;;;;;;30.25;22.58;;;20.10;99.90;;;;;;5041960;28;20669;-81
2023/09/13 05:52:27;;;;;;;27.90;23.70;;;20.00;99.90;;;;;;5026525;28;20218;-81
2023/09/13 05:54:55;;;;;;;29.30;23.75;;;20.00;99.90;;;;;;5051863;28;20659;-81
2023/09/13 05:57:22;;;;;;;29.25;23.02;;;19.90;99.90;;;;;;5024775;28;20207;-81
2023/09/13 05:59:50;;;;;;;31.58;24.65;;;19.80;99.90;;;;;;5029335;28;20205;-81
2023/09/13 06:02:18;;;;;;;36.67;27.83;;;19.90;99.90;;;;;;5034088;28;20222;-81
2023/09/13 06:04:46;;;;;;;33.97;25.33;;;19.90;99.90;;;;;;5044213;28;20695;-81
2023/09/13 06:07:13;;;;;;;33.40;26.05;;;20.10;99.90;;;;;;5028789;28;20214;-81
2023/09/13 06:09:41;;;;;;;41.92;31.33;;;20.20;99.90;;;;;;5022589;28;20199;-81
2023/09/13 06:12:09;;;;;;;44.03;32.17;;;20.20;99.90;;;;;;5031521;28;20222;-81
2023/09/13 06:14:37;;;;;;;46.42;34.13;;;20.10;99.90;;;;;;5048618;28;20300;-81
2023/09/13 06:17:05;;;;;;;50.55;36.15;;;19.90;99.90;;;;;;5040790;28;20198;-81
2023/09/13 06:19:34;;;;;;;54.95;39.80;;;20.00;99.90;;;;;;5042526;28;20210;-81
2023/09/13 06:22:02;;;;;;;55.50;39.72;;;19.90;99.90;;;;;;5043590;28;20226;-80
2023/09/13 06:24:29;;;;;;;60.78;40.92;;;19.60;99.90;;;;;;5027944;28;20198;-81
2023/09/13 06:26:57;;;;;;;55.20;38.55;;;19.70;99.90;;;;;;5028897;28;20214;-81
2023/09/13 06:29:24;;;;;;;56.55;38.70;;;19.80;99.90;;;;;;5035992;28;20690;-81
2023/09/13 06:31:54;;;;;;;57.95;39.88;;;19.80;99.90;;;;;;5034414;28;20218;-81
2023/09/13 06:34:22;;;;;;;54.42;37.97;;;19.80;99.90;;;;;;5033403;28;20206;-81
2023/09/13 06:36:50;;;;;;;53.45;38.53;;;19.80;99.90;;;;;;5027176;28;20695;-81
2023/09/13 06:39:19;;;;;;;52.72;37.95;;;19.80;99.90;;;;;;5028622;28;20198;-81
2023/09/13 06:41:46;;;;;;;53.17;36.38;;;19.80;99.90;;;;;;5028037;28;20218;-81
2023/09/13 06:44:15;;;;;;;59.95;38.70;;;19.80;99.90;;;;;;5035788;28;20194;-81
2023/09/13 06:46:42;;;;;;;50.65;36.70;;;19.80;99.90;;;;;;5031580;28;20229;-81
2023/09/13 06:49:10;;;;;;;53.00;37.38;;;19.90;99.90;;;;;;5028876;28;20194;-81
2023/09/13 06:51:37;;;;;;;51.42;37.95;;;19.90;99.90;;;;;;5029243;28;20221;-81
2023/09/13 06:54:07;;;;;;;51.17;36.85;;;19.90;99.90;;;;;;5029354;28;20199;-80
2023/09/13 06:56:34;;;;;;;58.88;38.90;;;19.80;99.90;;;;;;5035400;28;20197;-80
2023/09/13 06:59:02;;;;;;;58.38;38.55;;;19.60;99.90;;;;;;5036832;28;20191;-81
2023/09/13 07:01:29;;;;;;;56.10;38.90;;;19.60;99.90;;;;;;5015615;28;20219;-81
2023/09/13 07:03:57;;;;;;;58.20;38.88;;;19.70;99.90;;;;;;5034692;28;20210;-81
2023/09/13 07:06:24;;;;;;;60.63;40.03;;;19.70;99.90;;;;;;5024148;28;20579;-80
2023/09/13 07:08:52;;;;;;;54.75;36.35;;;19.60;99.90;;;;;;5043313;28;20205;-80
2023/09/13 07:11:21;;;;;;;51.95;37.33;;;19.80;99.90;;;;;;5025941;28;20215;-81
2023/09/13 07:13:48;;;;;;;52.55;36.85;;;19.80;99.90;;;;;;5032931;28;20198;-81
2023/09/13 07:16:16;;;;;;;49.17;36.30;;;19.80;99.90;;;;;;5029682;28;20191;-81
2023/09/13 07:18:43;;;;;;;46.25;33.78;;;19.90;99.90;;;;;;5045688;28;20214;-81
2023/09/13 07:21:11;;;;;;;39.58;29.00;;;20.00;99.90;;;;;;5031966;28;20203;-81
2023/09/13 07:23:38;;;;;;;39.38;27.92;;;20.00;99.90;;;;;;5033022;28;20194;-81
2023/09/13 07:26:06;;;;;;;40.67;29.80;;;19.90;99.90;;;;;;5028831;28;20220;-81
2023/09/13 07:28:34;;;;;;;38.08;28.83;;;19.90;99.90;;;;;;5023412;28;20202;-81
2023/09/13 07:31:06;;;;;;;43.08;31.10;;;19.90;99.90;;;;;;5036103;28;20205;-81
2023/09/13 07:33:34;;;;;;;38.22;28.02;;;19.90;99.90;;;;;;5028875;28;20202;-81
2023/09/13 07:36:01;;;;;;;40.80;29.85;;;20.00;99.90;;;;;;5045933;28;20664;-80
2023/09/13 07:38:29;;;;;;;40.60;30.13;;;20.10;99.90;;;;;;5037345;28;20195;-81
2023/09/13 07:40:56;;;;;;;41.65;31.20;;;20.20;99.90;;;;;;5047169;28;20278;-81
2023/09/13 07:43:24;;;;;;;38.08;29.15;;;20.30;99.90;;;;;;5048557;28;20203;-81
2023/09/13 07:45:53;;;;;;;42.50;32.10;;;20.40;99.90;;;;;;5018450;28;20199;-81
2023/09/13 07:48:20;;;;;;;45.90;32.78;;;20.20;99.90;;;;;;5030334;28;20206;-81
2023/09/13 07:50:48;;;;;;;45.78;31.65;;;20.30;99.90;;;;;;5016811;28;20205;-81
2023/09/13 07:53:15;;;;;;;49.53;36.22;;;20.50;99.90;;;;;;5027794;28;20223;-81
2023/09/13 07:55:42;;;;;;;48.20;34.88;;;20.20;99.90;;;;;;5032012;28;20213;-80
2023/09/13 07:58:10;;;;;;;47.55;34.53;;;20.10;99.90;;;;;;5039646;28;20198;-80
2023/09/13 08:00:37;;;;;;;49.60;34.80;;;19.80;99.90;;;;;;5022815;28;20202;-80
2023/09/13 08:03:06;;;;;;;50.60;36.13;;;19.80;99.90;;;;;;5026981;28;20244;-80
2023/09/13 08:05:34;;;;;;;52.72;36.03;;;19.90;99.90;;;;;;5021517;28;20195;-80
2023/09/13 08:08:03;;;;;;;49.40;34.72;;;19.90;99.90;;;;;;5040818;28;20214;-80
2023/09/13 08:10:30;;;;;;;53.00;36.15;;;20.00;99.90;;;;;;5027945;28;20198;-81
2023/09/13 08:12:58;;;;;;;51.28;34.20;;;20.10;99.90;;;;;;5041759;28;20218;-81
2023/09/13 08:15:25;;;;;;;49.25;33.65;;;20.10;99.90;;;;;;5016441;28;20210;-81
2023/09/13 08:17:52;;;;;;;44.95;31.88;;;20.20;99.90;;;;;;5043576;28;20217;-81
2023/09/13 08:20:21;;;;;;;49.58;34.65;;;20.20;99.90;;;;;;5030221;28;20203;-81
2023/09/13 08:22:49;;;;;;;44.15;32.92;;;20.20;99.90;;;;;;5031370;28;20591;-81
2023/09/13 08:25:16;;;;;;;45.00;33.15;;;20.20;99.90;;;;;;5021343;28;20195;-81
2023/09/13 08:27:44;;;;;;;46.20;32.38;;;20.40;99.90;;;;;;5018166;28;20226;-81
2023/09/13 08:30:11;;;;;;;42.65;31.80;;;20.30;99.90;;;;;;5049191;28;20198;-81
2023/09/13 08:32:39;;;;;;;43.85;33.20;;;20.50;99.90;;;;;;5022660;28;20237;-81
2023/09/13 08:35:07;;;;;;;45.92;32.53;;;20.40;99.90;;;;;;5042470;28;20202;-81
2023/09/13 08:37:35;;;;;;;43.92;32.60;;;20.40;99.90;;;;;;5024024;28;20199;-81
2023/09/13 08:40:04;;;;;;;45.58;33.25;;;20.20;99.90;;;;;;5051744;28;20194;-81
2023/09/13 08:42:32;;;;;;;45.50;33.08;;;20.10;99.90;;;;;;5034161;28;20226;-81
2023/09/13 08:45:00;;;;;;;46.92;33.47;;;20.20;99.90;;;;;;5032173;28;20203;-81
2023/09/13 08:47:31;;;;;;;51.00;36.03;;;20.20;99.90;;;;;;5018374;28;20221;-81
2023/09/13 08:50:03;;;;;;;50.20;34.70;;;20.20;99.90;;;;;;5026084;28;20205;-81
2023/09/13 08:52:32;;;;;;;45.58;33.25;;;20.20;99.90;;;;;;5051206;28;20217;-81
2023/09/13 08:55:03;;;;;;;43.75;32.92;;;20.50;99.90;;;;;;5032973;28;20210;-79
2023/09/13 08:57:33;;;;;;;44.10;31.83;;;20.30;99.90;;;;;;5035545;28;20190;-79
2023/09/13 09:00:00;;;;;;;41.30;31.08;;;20.50;99.90;;;;;;5029502;28;20221;-79
2023/09/13 09:02:31;;;;;;;46.75;33.40;;;20.40;99.90;;;;;;5019771;28;20221;-81
2023/09/13 09:05:00;;;;;;;46.70;33.03;;;20.40;99.90;;;;;;5026213;28;20540;-81
2023/09/13 09:07:28;;;;;;;42.20;32.55;;;20.40;99.90;;;;;;5017047;28;20218;-80
2023/09/13 09:09:58;;;;;;;46.65;31.73;;;20.40;99.90;;;;;;5034555;28;20198;-79
2023/09/13 09:12:27;;;;;;;43.33;30.73;;;20.50;99.90;;;;;;5028820;28;20237;-81
2023/09/13 09:14:56;;;;;;;39.25;31.23;;;20.60;99.90;;;;;;5033971;28;20202;-79
2023/09/13 09:17:26;;;;;;;44.03;31.55;;;20.30;99.90;;;;;;5039402;28;20196;-79
2023/09/13 09:19:54;;;;;;;48.25;32.90;;;20.30;99.90;;;;;;5037678;28;20564;-78
2023/09/13 09:22:23;;;;;;;46.70;32.10;;;20.10;99.90;;;;;;5022177;28;20222;-78
2023/09/13 09:24:50;;;;;;;47.72;32.78;;;20.00;99.90;;;;;;5065915;22;20242;-80
2023/09/13 09:27:17;;;;;;;45.65;31.77;;;20.00;99.90;;;;;;5023049;28;20219;-81
2023/09/13 09:29:46;;;;;;;46.00;31.58;;;20.10;99.90;;;;;;5043077;28;20207;-81
2023/09/13 09:32:14;;;;;;;43.95;29.20;;;20.10;99.90;;;;;;5028903;28;20195;-81
2023/09/13 09:34:42;;;;;;;43.55;30.63;;;20.20;99.90;;;;;;5041136;28;20224;-80
2023/09/13 09:37:11;;;;;;;42.60;30.63;;;20.20;99.90;;;;;;5056795;28;20199;-80
2023/09/13 09:39:41;;;;;;;42.80;32.60;;;20.10;99.90;;;;;;5051512;28;20202;-81
2023/09/13 09:42:15;;;;;;;45.15;31.95;;;20.40;99.90;;;;;;5048502;28;20675;-81
2023/09/13 09:44:42;;;;;;;43.67;30.25;;;20.40;99.90;;;;;;5057109;28;20225;-81
2023/09/13 09:47:12;;;;;;;41.00;29.55;;;20.30;99.90;;;;;;5047173;28;20199;-80
2023/09/13 09:49:40;;;;;;;42.78;31.00;;;20.40;99.90;;;;;;5049982;28;20191;-80
2023/09/13 09:52:08;;;;;;;38.45;29.17;;;20.40;99.90;;;;;;5060793;28;20202;-81
2023/09/13 09:54:38;;;;;;;34.70;27.40;;;20.80;99.90;;;;;;5042200;28;20226;-81
2023/09/13 09:57:06;;;;;;;35.95;27.40;;;21.00;99.90;;;;;;5057222;28;20690;-81
2023/09/13 09:59:35;;;;;;;36.05;27.50;;;21.10;99.90;;;;;;5044467;28;20205;-81
2023/09/13 10:02:03;;;;;;;33.47;25.88;;;21.20;99.90;;;;;;5047862;28;20571;-81
2023/09/13 10:04:45;;;;;;;35.33;26.77;;;20.90;99.90;;;;;;5045039;28;20234;-81
2023/09/13 10:07:13;;;;;;;34.95;25.60;;;20.80;99.90;;;;;;5062588;28;20202;-81
2023/09/13 10:09:41;;;;;;;15.77;13.70;;;20.70;99.90;;;;;;5060378;28;20198;-81
2023/09/13 10:12:10;;;;;;;11.52;9.23;;;20.20;99.90;;;;;;5045037;28;20202;-81
2023/09/13 10:14:38;;;;;;;6.60;5.35;;;19.70;99.90;;;;;;5048847;28;20223;-81
2023/09/13 10:17:06;;;;;;;5.68;4.22;;;19.20;99.90;;;;;;5062739;28;20199;-81
2023/09/13 10:19:36;;;;;;;6.80;4.43;;;19.20;99.90;;;;;;5058036;28;20199;-81
2023/09/13 10:22:04;;;;;;;6.55;5.10;;;19.00;99.90;;;;;;5054879;28;20230;-81
2023/09/13 10:24:36;;;;;;;6.28;3.88;;;19.20;99.90;;;;;;5064990;28;20226;-81
2023/09/13 10:27:07;;;;;;;4.28;3.58;;;18.90;99.90;;;;;;5064707;28;20206;-80
2023/09/13 10:29:40;;;;;;;4.78;4.13;;;18.70;99.90;;;;;;5065460;28;20222;-81
2023/09/13 10:32:12;;;;;;;7.03;3.60;;;18.80;99.90;;;;;;5047623;28;20206;-81
2023/09/13 10:34:48;;;;;;;4.60;3.88;;;18.90;99.90;;;;;;5052233;28;20225;-81
2023/09/13 10:37:24;;;;;;;4.78;3.47;;;19.00;99.90;;;;;;5065510;28;20206;-81
2023/09/13 10:39:54;;;;;;;5.03;3.70;;;19.20;99.90;;;;;;5067326;28;20206;-81
2023/09/13 10:42:23;;;;;;;5.00;3.50;;;19.30;99.90;;;;;;5039788;28;20205;-81
2023/09/13 10:44:52;;;;;;;3.38;3.08;;;19.20;99.90;;;;;;5030524;28;20223;-81
2023/09/13 10:47:20;;;;;;;3.85;3.17;;;18.90;99.90;;;;;;5038237;28;20206;-81
2023/09/13 10:49:53;;;;;;;3.08;2.78;;;18.80;99.90;;;;;;5065054;28;20202;-81
2023/09/13 10:52:21;;;;;;;5.50;3.58;;;18.90;99.90;;;;;;5063434;28;20197;-81
2023/09/13 10:54:50;;;;;;;3.10;2.67;;;19.00;99.90;;;;;;5053194;28;20233;-81
2023/09/13 10:57:19;;;;;;;3.22;2.92;;;19.20;99.90;;;;;;5039917;28;20199;-81
2023/09/13 10:59:47;;;;;;;4.47;3.15;;;19.20;99.90;;;;;;5047719;28;20206;-81
2023/09/13 11:02:14;;;;;;;3.45;3.15;;;18.90;99.90;;;;;;5051283;28;20206;-81
2023/09/13 11:04:42;;;;;;;2.72;2.50;;;19.10;99.90;;;;;;5060495;28;20213;-81
2023/09/13 11:07:15;;;;;;;4.63;2.83;;;19.20;99.90;;;;;;5043112;28;20587;-81
2023/09/13 11:09:45;;;;;;;2.92;2.45;;;19.20;99.90;;;;;;5063622;28;20223;-81
2023/09/13 11:12:13;;;;;;;2.40;2.17;;;19.10;99.90;;;;;;5050076;28;20577;-81
2023/09/13 11:14:46;;;;;;;3.22;2.55;;;19.10;99.90;;;;;;5039676;28;20215;-81
2023/09/13 11:17:37;;;;;;;1.95;1.85;;;18.90;99.90;;;;;;5040639;28;20202;-80
2023/09/13 11:20:27;;;;;;;3.40;2.28;;;18.90;99.90;;;;;;5062089;28;20213;-81
2023/09/13 11:23:08;;;;;;;3.25;2.30;;;19.10;99.90;;;;;;5035854;28;20205;-81
2023/09/13 11:25:40;;;;;;;5.53;3.40;;;18.90;99.90;;;;;;5043020;28;20230;-81
2023/09/13 11:28:09;;;;;;;4.10;2.58;;;19.00;99.90;;;;;;5043282;28;20214;-81
2023/09/13 11:30:51;;;;;;;4.75;2.30;;;18.80;99.90;;;;;;5060465;28;20194;-81
2023/09/13 11:33:19;;;;;;;4.32;2.20;;;18.90;99.90;;;;;;5043907;28;20198;-81
2023/09/13 11:35:50;;;;;;;4.65;2.20;;;19.10;99.90;;;;;;5042802;28;20214;-81
2023/09/13 11:38:19;;;;;;;5.00;2.45;;;19.20;99.90;;;;;;5059446;28;20213;-81
2023/09/13 11:40:48;;;;;;;2.60;2.00;;;19.10;99.90;;;;;;5059948;28;20206;-81
2023/09/13 11:43:22;;;;;;;3.03;1.73;;;19.30;99.90;;;;;;5044923;28;20209;-81
2023/09/13 11:45:50;;;;;;;3.97;1.83;;;19.60;99.90;;;;;;5061247;28;20217;-81
2023/09/13 11:48:28;;;;;;;6.43;2.28;;;20.10;99.90;;;;;;5043537;28;20233;-81
2023/09/13 11:50:57;;;;;;;2.75;2.20;;;20.40;99.90;;;;;;5041295;28;20209;-81
2023/09/13 11:53:28;;;;;;;3.50;1.88;;;20.80;99.90;;;;;;5047930;28;20191;-81
2023/09/13 11:55:57;;;;;;;1.35;1.08;;;20.90;1.00;;;;;;5046554;28;20207;-81
2023/09/13 11:58:33;;;;;;;2.03;1.63;;;21.50;99.90;;;;;;5052596;28;20194;-81
2023/09/13 12:01:03;;;;;;;2.33;1.85;;;21.50;1.00;;;;;;5042720;28;20213;-81
2023/09/13 12:03:31;;;;;;;2.13;1.52;;;21.50;1.00;;;;;;5041675;28;20199;-81
2023/09/13 12:05:59;;;;;;;2.15;1.63;;;21.50;1.00;;;;;;5042301;28;20214;-81
2023/09/13 12:08:29;;;;;;;1.52;1.30;;;21.70;99.90;;;;;;5038343;28;20225;-81
2023/09/13 12:10:57;;;;;;;3.80;2.00;;;21.70;1.00;;;;;;5044995;28;20198;-81
2023/09/13 12:13:41;;;;;;;1.77;1.33;;;21.40;99.90;;;;;;5035971;28;20202;-81
2023/09/13 12:16:09;;;;;;;3.67;1.60;;;21.50;99.90;;;;;;5040278;28;20204;-81
2023/09/13 12:18:37;;;;;;;3.25;1.60;;;21.50;91.00;;;;;;5047854;28;20194;-81
2023/09/13 12:21:07;;;;;;;3.55;1.70;;;21.50;99.90;;;;;;5042193;28;20198;-81
2023/09/13 12:23:38;;;;;;;3.13;1.48;;;20.90;1.00;;;;;;5038832;28;20229;-81
2023/09/13 12:26:08;;;;;;;3.35;1.73;;;20.50;99.90;;;;;;5050926;28;20203;-81
2023/09/13 12:28:37;;;;;;;2.47;1.63;;;20.30;1.00;;;;;;5048484;28;20214;-81
2023/09/13 12:31:06;;;;;;;3.10;1.65;;;20.20;1.00;;;;;;5042607;28;20199;-81
2023/09/13 12:33:35;;;;;;;4.07;2.10;;;20.20;1.00;;;;;;5042501;28;20198;-81
2023/09/13 12:36:03;;;;;;;3.88;1.80;;;20.20;1.00;;;;;;5048318;28;20660;-81
2023/09/13 12:38:46;;;;;;;2.78;1.83;;;20.10;1.00;;;;;;5040723;28;20198;-80
2023/09/13 12:41:15;;;;;;;3.65;2.65;;;20.00;99.90;;;;;;5070711;28;20202;-82